Allred, Tennessee
Current Conditions -  °F | °C
As of 6:53 PM on Saturday 20 Dec 2014 (Local Time) from KCSV Reporting Station
Broken Clouds Broken Clouds  
Wind Chill: 36°   Ceiling: 3900
Heat Index: 36°   Visibility: 10mi
Dew Point: 26°   Wind: 0mph
Humidity: 67%   Direction: NA
Pressure: 30.21"   Gusts: NA
Location:  36.33°N, 85.19°W
Report Text: KCSV 210053Z AUTO 00000KT 10SM BKN039 02/M03 A3021 RMK AO2 SLP242 T00221033
Loading
Personal Weather Stations






























Interactive Weather Map New forecast layout! Learn more

10-Day Weather Forecast

Advertisements
Track Severe Weather on mobile